Denver, CO (80212)

07:31 MDT le 17 septembre 2014 (GMT -0600)
NW Denver | Change Station
CLOSE
Current Station
Stations météorologiques personnelles
Location: Denver, CO
Altitude: 5384 ft
Stations météo à proximité

Alt. 5384 ft 39.78 °N, 105.04 °W | Updated 6 seconds ago

Partiellement nuageux
Partiellement nuageux
53.5 ° F
Paraît 53.5 ° F
N
0.0
Vent Variable Vent de ESE
Gusts 0.0 mph

Aujourd'hui
Haut(e) -- | Bas -- ° F
--% Risque de précip.
Hier
Haut(e) -- | Bas -- ° F
Precip. -- pouce
6:43 AM 7:05 PM
Lune descendante, 36% visible
Pression 29.94 pouce
Visibilité 10.0 Miles terrestres
Nuages Nuages épars 16000 ft
Nuageux 20000 ft
Point de rosée 47 ° F
Humidité 78%
Précipitations 0.00 pouce
Profondeur de la couche neigeuse 0 in , 0 in , 0 in
UV 0 sur 12
Pollen 7.70 sur 12
Ozone Bon
PM2.5 Bon
Flu Activity Non disponible.
METAR KAPA 171253Z 00000KT 10SM SCT160 BKN200 14/04 A3012 RMK AO2 SLP138 T01440039

More Conditions Fewer Conditions

Pression 29.94 pouce
Visibilité 10.0 Miles terrestres
Nuages Nuages épars 16000 ft
Nuageux 20000 ft
Point de rosée 47 ° F
Humidité 78%
Précipitations 0.00 pouce
Profondeur de la couche neigeuse 0 in , 0 in , 0 in
UV 0 sur 12
Pollen 7.70 sur 12
Ozone Bon
PM2.5 Bon
Flu Activity Non disponible.
METAR KAPA 171253Z 00000KT 10SM SCT160 BKN200 14/04 A3012 RMK AO2 SLP138 T01440039

More Conditions Fewer Conditions

10-Day Weather Forecast

Almanac

Astronomie

Sep. 17, 2014 Lever Coucher
Temps réel 06:43 MDT 19:05 MDT
Crépuscule civil 06:16 MDT 19:32 MDT
Crépuscule nautique 05:44 MDT 20:04 MDT
Crépuscule astronomique 05:11 MDT 20:36 MDT
Lune 00:45 MDT 15:16 MDT
Durée de lumière visible 13h 16m
Longueur du jour
12h 22m
Tomorrow will be 2m 35s shorter.
Lune descendante, 36% of the Moon is Illuminated
Aujourd'hui
Lune descendante
Sep 24
Nouveau
Oct 1
Premier quartier
Oct 8
Pleine lune
Oct 15
Dernier quartier

Extrêmes aujourd'hui

State Highs State Lows

Community

WunderPhotos

Upload Photos

1,754,029 Photos téléchargées !

Nearby

Qualité de l'air

  Qualité de l'air Indice de la qualité de l'air Polluant
Hier Bon
OZONE
Hier Bon
PM10
Actuel Bon
PM2.5
Actuel Bon
OZONE
mardi Moyen
OZONE
mardi Bon
PM2.5
mercredi Moyen
OZONE
mercredi Bon
PM2.5

Épaisseur de neige

Station Depth Altitude
Joe Wright 0 in 10120 ft
Tower 0 in 10500 ft
Brumley 0 in 10600 ft
Phantom Valley 0 in 9030 ft
Independence Pass 187 in 10600 ft

Activité sismique

Ville Distance Mag. Time & Date
No recent earthquake activity has been reported nearby.
Minimum magnitude displayed is 2.5.

Températures des eaux côtières

Lieu Température
Aucun rapport de station

Stations météo à proximité